sensor_id;sensor_type;location;lat;lon;timestamp;pressure;altitude;pressure_sealevel;temperature;humidity
20145;BME280;10233;50.814;6.590;2024-02-26T00:00:54;98378.31;;;7.38;100.00
20145;BME280;10233;50.814;6.590;2024-02-26T00:01:55;98384.63;;;7.37;100.00
20145;BME280;10233;50.814;6.590;2024-02-26T00:02:55;98381.88;;;7.32;100.00
20145;BME280;10233;50.814;6.590;2024-02-26T00:03:56;98375.44;;;7.40;100.00
20145;BME280;10233;50.814;6.590;2024-02-26T00:04:59;98382.56;;;7.39;100.00
20145;BME280;10233;50.814;6.590;2024-02-26T00:06:00;98374.50;;;7.34;100.00
20145;BME280;10233;50.814;6.590;2024-02-26T00:07:00;98369.56;;;7.38;100.00
20145;BME280;10233;50.814;6.590;2024-02-26T00:08:00;98378.09;;;7.40;100.00
20145;BME280;10233;50.814;6.590;2024-02-26T00:09:01;98380.22;;;7.31;100.00
20145;BME280;10233;50.814;6.590;2024-02-26T00:10:03;98377.38;;;7.33;100.00
20145;BME280;10233;50.814;6.590;2024-02-26T00:11:04;98374.16;;;7.31;100.00
20145;BME280;10233;50.814;6.590;2024-02-26T00:12:04;98370.69;;;7.30;100.00
20145;BME280;10233;50.814;6.590;2024-02-26T00:13:05;98368.06;;;7.30;100.00
20145;BME280;10233;50.814;6.590;2024-02-26T00:14:05;98366.56;;;7.34;100.00
20145;BME280;10233;50.814;6.590;2024-02-26T00:15:07;98368.66;;;7.32;100.00
20145;BME280;10233;50.814;6.590;2024-02-26T00:16:08;98368.88;;;7.31;100.00
20145;BME280;10233;50.814;6.590;2024-02-26T00:17:08;98370.69;;;7.30;100.00
20145;BME280;10233;50.814;6.590;2024-02-26T00:18:08;98366.78;;;7.33;100.00
20145;BME280;10233;50.814;6.590;2024-02-26T00:19:09;98364.84;;;7.28;100.00
20145;BME280;10233;50.814;6.590;2024-02-26T00:20:10;98366.22;;;7.31;100.00
20145;BME280;10233;50.814;6.590;2024-02-26T00:21:11;98364.28;;;7.38;100.00
20145;BME280;10233;50.814;6.590;2024-02-26T00:22:11;98364.75;;;7.35;100.00
20145;BME280;10233;50.814;6.590;2024-02-26T00:23:15;98368.28;;;7.29;100.00
20145;BME280;10233;50.814;6.590;2024-02-26T00:24:15;98360.72;;;7.32;100.00
20145;BME280;10233;50.814;6.590;2024-02-26T00:25:16;98361.63;;;7.26;100.00
20145;BME280;10233;50.814;6.590;2024-02-26T00:26:16;98361.97;;;7.30;100.00
20145;BME280;10233;50.814;6.590;2024-02-26T00:27:17;98356.00;;;7.23;100.00
20145;BME280;10233;50.814;6.590;2024-02-26T00:28:18;98357.59;;;7.24;100.00
20145;BME280;10233;50.814;6.590;2024-02-26T00:29:20;98361.16;;;7.29;100.00
20145;BME280;10233;50.814;6.590;2024-02-26T00:30:21;98363.81;;;7.29;100.00
20145;BME280;10233;50.814;6.590;2024-02-26T00:31:22;98356.59;;;7.25;100.00
20145;BME280;10233;50.814;6.590;2024-02-26T00:32:23;98364.72;;;7.23;100.00
20145;BME280;10233;50.814;6.590;2024-02-26T00:33:23;98353.94;;;7.25;100.00
20145;BME280;10233;50.814;6.590;2024-02-26T00:34:24;98365.19;;;7.32;100.00
20145;BME280;10233;50.814;6.590;2024-02-26T00:35:24;98355.88;;;7.29;100.00
20145;BME280;10233;50.814;6.590;2024-02-26T00:36:25;98358.41;;;7.24;100.00
20145;BME280;10233;50.814;6.590;2024-02-26T00:37:25;98357.84;;;7.22;100.00
20145;BME280;10233;50.814;6.590;2024-02-26T00:38:25;98351.63;;;7.17;100.00
20145;BME280;10233;50.814;6.590;2024-02-26T00:39:26;98355.41;;;7.21;100.00
20145;BME280;10233;50.814;6.590;2024-02-26T00:40:26;98357.59;;;7.24;100.00
20145;BME280;10233;50.814;6.590;2024-02-26T00:41:27;98356.47;;;7.20;100.00
20145;BME280;10233;50.814;6.590;2024-02-26T00:42:27;98357.25;;;7.20;100.00
20145;BME280;10233;50.814;6.590;2024-02-26T00:43:28;98364.13;;;7.21;100.00
20145;BME280;10233;50.814;6.590;2024-02-26T00:44:28;98365.19;;;7.32;100.00
20145;BME280;10233;50.814;6.590;2024-02-26T00:45:29;98361.63;;;7.26;100.00
20145;BME280;10233;50.814;6.590;2024-02-26T00:46:29;98366.78;;;7.21;100.00
20145;BME280;10233;50.814;6.590;2024-02-26T00:47:30;98361.28;;;7.23;100.00
20145;BME280;10233;50.814;6.590;2024-02-26T00:48:30;98359.78;;;7.27;100.00
20145;BME280;10233;50.814;6.590;2024-02-26T00:49:31;98359.34;;;7.30;100.00
20145;BME280;10233;50.814;6.590;2024-02-26T00:50:31;98359.88;;;7.20;100.00
20145;BME280;10233;50.814;6.590;2024-02-26T00:51:32;98362.53;;;7.20;100.00
20145;BME280;10233;50.814;6.590;2024-02-26T00:52:32;98353.56;;;7.21;100.00
20145;BME280;10233;50.814;6.590;2024-02-26T00:53:33;98345.41;;;7.23;100.00
20145;BME280;10233;50.814;6.590;2024-02-26T00:54:34;98363.34;;;7.21;100.00
20145;BME280;10233;50.814;6.590;2024-02-26T00:55:34;98357.84;;;7.22;100.00
20145;BME280;10233;50.814;6.590;2024-02-26T00:56:35;98364.50;;;7.25;100.00
20145;BME280;10233;50.814;6.590;2024-02-26T00:57:35;98355.75;;;7.24;100.00
20145;BME280;10233;50.814;6.590;2024-02-26T00:58:36;98352.69;;;7.27;100.00
20145;BME280;10233;50.814;6.590;2024-02-26T00:59:36;98351.41;;;7.30;100.00
20145;BME280;10233;50.814;6.590;2024-02-26T01:00:37;98355.31;;;7.27;100.00
20145;BME280;10233;50.814;6.590;2024-02-26T01:01:37;98361.28;;;7.23;100.00
20145;BME280;10233;50.814;6.590;2024-02-26T01:02:37;98356.22;;;7.21;100.00
20145;BME280;10233;50.814;6.590;2024-02-26T01:03:39;98357.59;;;7.24;100.00
20145;BME280;10233;50.814;6.590;2024-02-26T01:04:39;98357.03;;;7.22;100.00
20145;BME280;10233;50.814;6.590;2024-02-26T01:05:39;98354.38;;;7.22;100.00
20145;BME280;10233;50.814;6.590;2024-02-26T01:06:40;98360.00;;;7.25;100.00
20145;BME280;10233;50.814;6.590;2024-02-26T01:07:40;98356.81;;;7.23;100.00
20145;BME280;10233;50.814;6.590;2024-02-26T01:08:41;98354.59;;;7.20;100.00
20145;BME280;10233;50.814;6.590;2024-02-26T01:09:42;98368.53;;;7.27;100.00
20145;BME280;10233;50.814;6.590;2024-02-26T01:10:51;98353.34;;;7.23;100.00
20145;BME280;10233;50.814;6.590;2024-02-26T01:11:51;98370.13;;;7.28;100.00
20145;BME280;10233;50.814;6.590;2024-02-26T01:12:52;98366.22;;;7.31;100.00
20145;BME280;10233;50.814;6.590;2024-02-26T01:13:52;98366.56;;;7.23;100.00
20145;BME280;10233;50.814;6.590;2024-02-26T01:14:56;98370.47;;;7.20;100.00
20145;BME280;10233;50.814;6.590;2024-02-26T01:15:57;98357.59;;;7.24;100.00
20145;BME280;10233;50.814;6.590;2024-02-26T01:16:57;98362.22;;;7.28;100.00
20145;BME280;10233;50.814;6.590;2024-02-26T01:17:58;98367.72;;;7.27;100.00
20145;BME280;10233;50.814;6.590;2024-02-26T01:18:58;98360.00;;;7.25;100.00
20145;BME280;10233;50.814;6.590;2024-02-26T01:19:58;98359.09;;;7.31;100.00
20145;BME280;10233;50.814;6.590;2024-02-26T01:20:59;98355.06;;;7.29;100.00
20145;BME280;10233;50.814;6.590;2024-02-26T01:21:59;98362.88;;;7.24;100.00
20145;BME280;10233;50.814;6.590;2024-02-26T01:23:00;98367.16;;;7.25;100.00
20145;BME280;10233;50.814;6.590;2024-02-26T01:24:00;98362.44;;;7.27;100.00
20145;BME280;10233;50.814;6.590;2024-02-26T01:25:01;98362.09;;;7.23;100.00
20145;BME280;10233;50.814;6.590;2024-02-26T01:26:01;98361.63;;;7.26;100.00
20145;BME280;10233;50.814;6.590;2024-02-26T01:27:03;98353.13;;;7.24;100.00
20145;BME280;10233;50.814;6.590;2024-02-26T01:28:04;98357.97;;;7.27;100.00
20145;BME280;10233;50.814;6.590;2024-02-26T01:29:04;98356.09;;;7.28;100.00
20145;BME280;10233;50.814;6.590;2024-02-26T01:30:05;98353.56;;;7.21;100.00
20145;BME280;10233;50.814;6.590;2024-02-26T01:31:06;98349.44;;;7.25;100.00
20145;BME280;10233;50.814;6.590;2024-02-26T01:32:08;98351.97;;;7.20;100.00
20145;BME280;10233;50.814;6.590;2024-02-26T01:33:09;98351.19;;;7.20;100.00
20145;BME280;10233;50.814;6.590;2024-02-26T01:34:09;98350.13;;;7.21;100.00
20145;BME280;10233;50.814;6.590;2024-02-26T01:35:10;98352.31;;;7.24;100.00
20145;BME280;10233;50.814;6.590;2024-02-26T01:36:12;98348.88;;;7.23;100.00
20145;BME280;10233;50.814;6.590;2024-02-26T01:37:12;98350.69;;;7.23;100.00
20145;BME280;10233;50.814;6.590;2024-02-26T01:38:13;98346.00;;;7.25;100.00
20145;BME280;10233;50.814;6.590;2024-02-26T01:39:13;98345.53;;;7.28;100.00
20145;BME280;10233;50.814;6.590;2024-02-26T01:40:14;98342.22;;;7.21;100.00
20145;BME280;10233;50.814;6.590;2024-02-26T01:41:20;98342.22;;;7.21;100.00
20145;BME280;10233;50.814;6.590;2024-02-26T01:42:20;98342.88;;;7.16;100.00
20145;BME280;10233;50.814;6.590;2024-02-26T01:43:20;98349.31;;;7.20;100.00
20145;BME280;10233;50.814;6.590;2024-02-26T01:44:21;98347.84;;;7.24;100.00
20145;BME280;10233;50.814;6.590;2024-02-26T01:45:21;98338.19;;;7.18;100.00
20145;BME280;10233;50.814;6.590;2024-02-26T01:46:24;98349.53;;;7.19;100.00
20145;BME280;10233;50.814;6.590;2024-02-26T01:47:26;98352.09;;;7.25;100.00
20145;BME280;10233;50.814;6.590;2024-02-26T01:48:27;98342.44;;;7.19;100.00
20145;BME280;10233;50.814;6.590;2024-02-26T01:49:28;98343.91;;;7.15;100.00
20145;BME280;10233;50.814;6.590;2024-02-26T01:50:29;98345.06;;;7.19;100.00
20145;BME280;10233;50.814;6.590;2024-02-26T01:51:30;98336.13;;;7.20;100.00
20145;BME280;10233;50.814;6.590;2024-02-26T01:52:32;98338.75;;;7.20;100.00
20145;BME280;10233;50.814;6.590;2024-02-26T01:53:33;98335.06;;;7.21;100.00
20145;BME280;10233;50.814;6.590;2024-02-26T01:54:35;98338.88;;;7.25;100.00
20145;BME280;10233;50.814;6.590;2024-02-26T01:55:36;98342.44;;;7.19;100.00
20145;BME280;10233;50.814;6.590;2024-02-26T01:56:41;98339.78;;;7.19;100.00
20145;BME280;10233;50.814;6.590;2024-02-26T01:57:44;98345.75;;;7.26;100.00
20145;BME280;10233;50.814;6.590;2024-02-26T01:58:45;98343.38;;;7.25;100.00
20145;BME280;10233;50.814;6.590;2024-02-26T01:59:46;98344.97;;;7.26;100.00
20145;BME280;10233;50.814;6.590;2024-02-26T02:00:46;98350.03;;;7.27;100.00
20145;BME280;10233;50.814;6.590;2024-02-26T02:01:48;98350.03;;;7.27;100.00
20145;BME280;10233;50.814;6.590;2024-02-26T02:02:54;98341.50;;;7.25;100.00
20145;BME280;10233;50.814;6.590;2024-02-26T02:03:59;98348.66;;;7.25;100.00
20145;BME280;10233;50.814;6.590;2024-02-26T02:05:01;98352.22;;;7.30;100.00
20145;BME280;10233;50.814;6.590;2024-02-26T02:06:02;98348.41;;;7.26;100.00
20145;BME280;10233;50.814;6.590;2024-02-26T02:07:03;98347.13;;;7.29;100.00
20145;BME280;10233;50.814;6.590;2024-02-26T02:08:05;98346.13;;;7.30;100.00
20145;BME280;10233;50.814;6.590;2024-02-26T02:09:05;98345.31;;;7.29;100.00
20145;BME280;10233;50.814;6.590;2024-02-26T02:10:07;98345.88;;;7.31;100.00
20145;BME280;10233;50.814;6.590;2024-02-26T02:11:08;98353.38;;;7.34;100.00
20145;BME280;10233;50.814;6.590;2024-02-26T02:12:11;98345.75;;;7.26;100.00
20145;BME280;10233;50.814;6.590;2024-02-26T02:13:13;98345.50;;;7.16;100.00
20145;BME280;10233;50.814;6.590;2024-02-26T02:14:14;98346.00;;;7.25;100.00
20145;BME280;10233;50.814;6.590;2024-02-26T02:15:15;98345.31;;;7.29;100.00
20145;BME280;10233;50.814;6.590;2024-02-26T02:16:15;98337.84;;;7.26;100.00
20145;BME280;10233;50.814;6.590;2024-02-26T02:17:16;98341.72;;;7.24;100.00
20145;BME280;10233;50.814;6.590;2024-02-26T02:18:16;98332.09;;;7.29;100.00
20145;BME280;10233;50.814;6.590;2024-02-26T02:19:17;98332.31;;;7.28;100.00
20145;BME280;10233;50.814;6.590;2024-02-26T02:20:18;98341.28;;;7.27;100.00
20145;BME280;10233;50.814;6.590;2024-02-26T02:21:18;98338.09;;;7.25;100.00
20145;BME280;10233;50.814;6.590;2024-02-26T02:22:19;98338.53;;;7.22;100.00
20145;BME280;10233;50.814;6.590;2024-02-26T02:23:19;98339.34;;;7.22;100.00
20145;BME280;10233;50.814;6.590;2024-02-26T02:24:20;98346.22;;;7.23;100.00
20145;BME280;10233;50.814;6.590;2024-02-26T02:25:20;98349.19;;;7.15;100.00
20145;BME280;10233;50.814;6.590;2024-02-26T02:26:21;98343.00;;;7.21;100.00
20145;BME280;10233;50.814;6.590;2024-02-26T02:27:21;98342.00;;;7.22;100.00
20145;BME280;10233;50.814;6.590;2024-02-26T02:28:23;98349.91;;;7.22;100.00
20145;BME280;10233;50.814;6.590;2024-02-26T02:29:25;98347.28;;;7.22;100.00
20145;BME280;10233;50.814;6.590;2024-02-26T02:30:29;98340.13;;;7.23;100.00
20145;BME280;10233;50.814;6.590;2024-02-26T02:31:31;98334.28;;;7.21;100.00
20145;BME280;10233;50.814;6.590;2024-02-26T02:32:31;98342.34;;;7.26;100.00
20145;BME280;10233;50.814;6.590;2024-02-26T02:33:33;98334.84;;;7.23;100.00
20145;BME280;10233;50.814;6.590;2024-02-26T02:34:34;98341.50;;;7.25;100.00
20145;BME280;10233;50.814;6.590;2024-02-26T02:35:34;98343.38;;;7.25;100.00
20145;BME280;10233;50.814;6.590;2024-02-26T02:36:35;98344.97;;;7.26;100.00
20145;BME280;10233;50.814;6.590;2024-02-26T02:37:35;98345.75;;;7.26;100.00
20145;BME280;10233;50.814;6.590;2024-02-26T02:38:37;98346.81;;;7.25;100.00
20145;BME280;10233;50.814;6.590;2024-02-26T02:39:37;98347.28;;;7.22;100.00
20145;BME280;10233;50.814;6.590;2024-02-26T02:40:38;98348.97;;;7.17;100.00
20145;BME280;10233;50.814;6.590;2024-02-26T02:41:38;98349.91;;;7.22;100.00
20145;BME280;10233;50.814;6.590;2024-02-26T02:42:39;98349.53;;;7.19;100.00
20145;BME280;10233;50.814;6.590;2024-02-26T02:43:39;98345.06;;;7.19;100.00
20145;BME280;10233;50.814;6.590;2024-02-26T02:44:39;98346.69;;;7.20;100.00
20145;BME280;10233;50.814;6.590;2024-02-26T02:45:40;98347.28;;;7.22;100.00
20145;BME280;10233;50.814;6.590;2024-02-26T02:46:40;98345.88;;;7.20;100.00
20145;BME280;10233;50.814;6.590;2024-02-26T02:47:41;98345.28;;;7.18;100.00
20145;BME280;10233;50.814;6.590;2024-02-26T02:48:42;98349.66;;;7.24;100.00
20145;BME280;10233;50.814;6.590;2024-02-26T02:49:43;98353.81;;;7.20;100.00
20145;BME280;10233;50.814;6.590;2024-02-26T02:50:43;98351.19;;;7.20;100.00
20145;BME280;10233;50.814;6.590;2024-02-26T02:51:44;98354.47;;;7.15;100.00
20145;BME280;10233;50.814;6.590;2024-02-26T02:52:44;98351.53;;;7.23;100.00
20145;BME280;10233;50.814;6.590;2024-02-26T02:53:45;98351.75;;;7.22;100.00
20145;BME280;10233;50.814;6.590;2024-02-26T02:54:45;98343.91;;;7.15;100.00
20145;BME280;10233;50.814;6.590;2024-02-26T02:55:47;98350.00;;;7.16;100.00
20145;BME280;10233;50.814;6.590;2024-02-26T02:56:47;98349.09;;;7.22;100.00
20145;BME280;10233;50.814;6.590;2024-02-26T02:57:48;98353.22;;;7.18;100.00
20145;BME280;10233;50.814;6.590;2024-02-26T02:58:48;98352.78;;;7.21;100.00
20145;BME280;10233;50.814;6.590;2024-02-26T02:59:48;98357.03;;;7.22;100.00
20145;BME280;10233;50.814;6.590;2024-02-26T03:00:49;98350.91;;;7.21;100.00
20145;BME280;10233;50.814;6.590;2024-02-26T03:01:49;98355.19;;;7.22;100.00
20145;BME280;10233;50.814;6.590;2024-02-26T03:02:50;98350.25;;;7.26;100.00
20145;BME280;10233;50.814;6.590;2024-02-26T03:03:50;98345.41;;;7.23;100.00
20145;BME280;10233;50.814;6.590;2024-02-26T03:04:51;98347.84;;;7.24;100.00
20145;BME280;10233;50.814;6.590;2024-02-26T03:05:52;98354.16;;;7.23;100.00
20145;BME280;10233;50.814;6.590;2024-02-26T03:06:52;98348.06;;;7.23;100.00
20145;BME280;10233;50.814;6.590;2024-02-26T03:07:52;98351.53;;;7.23;100.00
20145;BME280;10233;50.814;6.590;2024-02-26T03:08:53;98348.66;;;7.25;100.00
20145;BME280;10233;50.814;6.590;2024-02-26T03:09:54;98347.84;;;7.24;100.00
20145;BME280;10233;50.814;6.590;2024-02-26T03:10:55;98341.41;;;7.20;100.00
20145;BME280;10233;50.814;6.590;2024-02-26T03:11:55;98341.50;;;7.25;100.00
20145;BME280;10233;50.814;6.590;2024-02-26T03:12:56;98338.53;;;7.22;100.00
20145;BME280;10233;50.814;6.590;2024-02-26T03:13:57;98347.94;;;7.18;100.00
20145;BME280;10233;50.814;6.590;2024-02-26T03:14:57;98345.63;;;7.21;100.00
20145;BME280;10233;50.814;6.590;2024-02-26T03:15:57;98340.47;;;7.15;100.00
20145;BME280;10233;50.814;6.590;2024-02-26T03:16:58;98337.03;;;7.14;100.00
20145;BME280;10233;50.814;6.590;2024-02-26T03:17:58;98336.59;;;7.17;100.00
20145;BME280;10233;50.814;6.590;2024-02-26T03:18:59;98343.25;;;7.20;100.00
20145;BME280;10233;50.814;6.590;2024-02-26T03:20:03;98342.66;;;7.18;100.00
20145;BME280;10233;50.814;6.590;2024-02-26T03:22:32;98333.94;;;7.17;100.00
20145;BME280;10233;50.814;6.590;2024-02-26T03:23:33;98335.44;;;7.13;100.00
20145;BME280;10233;50.814;6.590;2024-02-26T03:24:36;98334.94;;;7.16;100.00
20145;BME280;10233;50.814;6.590;2024-02-26T03:26:57;98339.09;;;7.12;100.00
20145;BME280;10233;50.814;6.590;2024-02-26T03:28:11;98337.47;;;7.11;100.00
20145;BME280;10233;50.814;6.590;2024-02-26T03:29:12;98341.97;;;7.11;100.00
20145;BME280;10233;50.814;6.590;2024-02-26T03:30:13;98336.31;;;7.07;100.00
20145;BME280;10233;50.814;6.590;2024-02-26T03:31:14;98345.28;;;7.06;100.00
20145;BME280;10233;50.814;6.590;2024-02-26T03:32:15;98338.28;;;7.12;100.00
20145;BME280;10233;50.814;6.590;2024-02-26T03:33:15;98338.28;;;7.12;100.00
20145;BME280;10233;50.814;6.590;2024-02-26T03:34:16;98337.47;;;7.11;100.00
20145;BME280;10233;50.814;6.590;2024-02-26T03:35:17;98344.13;;;7.14;100.00
20145;BME280;10233;50.814;6.590;2024-02-26T03:36:18;98346.44;;;7.10;100.00
20145;BME280;10233;50.814;6.590;2024-02-26T03:37:18;98341.97;;;7.11;100.00
20145;BME280;10233;50.814;6.590;2024-02-26T03:38:19;98345.19;;;7.13;100.00
20145;BME280;10233;50.814;6.590;2024-02-26T03:39:19;98344.72;;;7.16;100.00
20145;BME280;10233;50.814;6.590;2024-02-26T03:40:20;98342.31;;;7.14;100.00
20145;BME280;10233;50.814;6.590;2024-02-26T03:41:20;98344.25;;;7.19;100.00
20145;BME280;10233;50.814;6.590;2024-02-26T03:42:21;98346.31;;;7.05;100.00
20145;BME280;10233;50.814;6.590;2024-02-26T03:43:21;98344.00;;;7.09;100.00
20145;BME280;10233;50.814;6.590;2024-02-26T03:44:22;98343.00;;;7.10;100.00
20145;BME280;10233;50.814;6.590;2024-02-26T03:45:22;98342.06;;;7.04;100.00
20145;BME280;10233;50.814;6.590;2024-02-26T03:46:23;98339.53;;;7.09;100.00
20145;BME280;10233;50.814;6.590;2024-02-26T03:47:23;98346.88;;;7.07;100.00
20145;BME280;10233;50.814;6.590;2024-02-26T03:48:24;98350.13;;;7.09;100.00
20145;BME280;10233;50.814;6.590;2024-02-26T03:49:24;98347.69;;;7.08;100.00
20145;BME280;10233;50.814;6.590;2024-02-26T03:50:24;98352.03;;;7.02;100.00
20145;BME280;10233;50.814;6.590;2024-02-26T03:51:25;98354.22;;;7.05;100.00
20145;BME280;10233;50.814;6.590;2024-02-26T03:52:26;98348.59;;;7.02;100.00
20145;BME280;10233;50.814;6.590;2024-02-26T03:53:27;98345.16;;;7.01;100.00
20145;BME280;10233;50.814;6.590;2024-02-26T03:54:28;98354.09;;;7.00;100.00
20145;BME280;10233;50.814;6.590;2024-02-26T03:55:28;98356.31;;;7.03;100.00
20145;BME280;10233;50.814;6.590;2024-02-26T03:56:29;98354.66;;;7.02;100.00
20145;BME280;10233;50.814;6.590;2024-02-26T03:57:30;98353.28;;;7.00;100.00
20145;BME280;10233;50.814;6.590;2024-02-26T03:58:30;98352.63;;;7.04;100.00
20145;BME280;10233;50.814;6.590;2024-02-26T03:59:31;98354.22;;;7.05;100.00
20145;BME280;10233;50.814;6.590;2024-02-26T04:00:31;98360.91;;;7.08;100.00
20145;BME280;10233;50.814;6.590;2024-02-26T04:01:31;98361.50;;;7.10;100.00
20145;BME280;10233;50.814;6.590;2024-02-26T04:02:32;98362.72;;;7.07;100.00
20145;BME280;10233;50.814;6.590;2024-02-26T04:03:33;98363.75;;;7.06;100.00
20145;BME280;10233;50.814;6.590;2024-02-26T04:04:36;98362.16;;;7.05;100.00
20145;BME280;10233;50.814;6.590;2024-02-26T04:05:36;98368.91;;;7.01;100.00
20145;BME280;10233;50.814;6.590;2024-02-26T04:06:37;98368.69;;;7.03;100.00
20145;BME280;10233;50.814;6.590;2024-02-26T04:07:37;98370.53;;;7.02;100.00
20145;BME280;10233;50.814;6.590;2024-02-26T04:08:38;98374.78;;;7.03;100.00
20145;BME280;10233;50.814;6.590;2024-02-26T04:09:38;98372.47;;;6.95;100.00
20145;BME280;10233;50.814;6.590;2024-02-26T04:10:39;98374.06;;;6.96;100.00
20145;BME280;10233;50.814;6.590;2024-02-26T04:11:39;98373.50;;;6.94;100.00
20145;BME280;10233;50.814;6.590;2024-02-26T04:12:41;98375.09;;;6.95;100.00
20145;BME280;10233;50.814;6.590;2024-02-26T04:13:43;98370.88;;;6.94;100.00
20145;BME280;10233;50.814;6.590;2024-02-26T04:14:46;98381.28;;;6.89;100.00
20145;BME280;10233;50.814;6.590;2024-02-26T04:15:46;98373.16;;;6.91;100.00
20145;BME280;10233;50.814;6.590;2024-02-26T04:16:47;98378.66;;;6.89;100.00
20145;BME280;10233;50.814;6.590;2024-02-26T04:17:51;98384.50;;;6.91;100.00
20145;BME280;10233;50.814;6.590;2024-02-26T04:18:52;98384.50;;;6.91;100.00
20145;BME280;10233;50.814;6.590;2024-02-26T04:19:53;98376.59;;;6.91;100.00
20145;BME280;10233;50.814;6.590;2024-02-26T04:20:54;98381.94;;;6.85;100.00
20145;BME280;10233;50.814;6.590;2024-02-26T04:21:54;98381.50;;;6.88;100.00
20145;BME280;10233;50.814;6.590;2024-02-26T04:22:55;98378.97;;;6.81;100.00
20145;BME280;10233;50.814;6.590;2024-02-26T04:23:55;98381.72;;;6.86;100.00
20145;BME280;10233;50.814;6.590;2024-02-26T04:24:56;98381.28;;;6.89;100.00
20145;BME280;10233;50.814;6.590;2024-02-26T04:25:56;98378.06;;;6.87;100.00
20145;BME280;10233;50.814;6.590;2024-02-26T04:26:57;98380.34;;;6.84;100.00
20145;BME280;10233;50.814;6.590;2024-02-26T04:27:57;98376.00;;;6.89;100.00
20145;BME280;10233;50.814;6.590;2024-02-26T04:28:58;98389.22;;;6.89;100.00
20145;BME280;10233;50.814;6.590;2024-02-26T04:29:58;98386.22;;;6.86;100.00
20145;BME280;10233;50.814;6.590;2024-02-26T04:30:59;98383.34;;;6.87;100.00
20145;BME280;10233;50.814;6.590;2024-02-26T04:31:59;98385.31;;;6.92;100.00
20145;BME280;10233;50.814;6.590;2024-02-26T04:32:59;98381.28;;;6.89;100.00
20145;BME280;10233;50.814;6.590;2024-02-26T04:34:00;98381.28;;;6.89;100.00
20145;BME280;10233;50.814;6.590;2024-02-26T04:35:02;98385.75;;;6.89;100.00
20145;BME280;10233;50.814;6.590;2024-02-26T04:36:02;98382.56;;;6.87;100.00
20145;BME280;10233;50.814;6.590;2024-02-26T04:37:03;98388.06;;;6.85;100.00
20145;BME280;10233;50.814;6.590;2024-02-26T04:38:03;98383.94;;;6.89;100.00
20145;BME280;10233;50.814;6.590;2024-02-26T04:39:04;98378.88;;;6.88;100.00
20145;BME280;10233;50.814;6.590;2024-02-26T04:40:05;98383.34;;;6.87;100.00
20145;BME280;10233;50.814;6.590;2024-02-26T04:41:06;98384.16;;;6.88;100.00
20145;BME280;10233;50.814;6.590;2024-02-26T04:42:06;98385.19;;;6.87;100.00
20145;BME280;10233;50.814;6.590;2024-02-26T04:43:07;98385.41;;;6.85;100.00
20145;BME280;10233;50.814;6.590;2024-02-26T04:44:08;98376.09;;;6.83;100.00
20145;BME280;10233;50.814;6.590;2024-02-26T04:45:08;98378.53;;;6.84;100.00
20145;BME280;10233;50.814;6.590;2024-02-26T04:46:09;98378.31;;;6.86;100.00
20145;BME280;10233;50.814;6.590;2024-02-26T04:47:09;98372.44;;;6.84;100.00
20145;BME280;10233;50.814;6.590;2024-02-26T04:48:11;98380.69;;;6.87;100.00
20145;BME280;10233;50.814;6.590;2024-02-26T04:49:11;98379.44;;;6.90;100.00
20145;BME280;10233;50.814;6.590;2024-02-26T04:50:12;98380.47;;;6.89;100.00
20145;BME280;10233;50.814;6.590;2024-02-26T04:51:12;98383.59;;;6.86;100.00
20145;BME280;10233;50.814;6.590;2024-02-26T04:52:12;98377.69;;;6.84;100.00
20145;BME280;10233;50.814;6.590;2024-02-26T04:53:13;98381.72;;;6.86;100.00
20145;BME280;10233;50.814;6.590;2024-02-26T04:54:13;98391.25;;;6.87;100.00
20145;BME280;10233;50.814;6.590;2024-02-26T04:55:14;98392.38;;;6.80;100.00
20145;BME280;10233;50.814;6.590;2024-02-26T04:56:14;98393.19;;;6.80;100.00
20145;BME280;10233;50.814;6.590;2024-02-26T04:57:15;98391.13;;;6.82;100.00
20145;BME280;10233;50.814;6.590;2024-02-26T04:58:15;98389.78;;;6.91;100.00
20145;BME280;10233;50.814;6.590;2024-02-26T04:59:16;98396.09;;;6.90;100.00
20145;BME280;10233;50.814;6.590;2024-02-26T05:00:16;98391.25;;;6.87;100.00
20145;BME280;10233;50.814;6.590;2024-02-26T05:01:17;98393.34;;;6.85;100.00
20145;BME280;10233;50.814;6.590;2024-02-26T05:02:17;98393.47;;;6.90;100.00
20145;BME280;10233;50.814;6.590;2024-02-26T05:03:18;98398.47;;;6.80;100.00
20145;BME280;10233;50.814;6.590;2024-02-26T05:04:18;98394.38;;;6.84;100.00
20145;BME280;10233;50.814;6.590;2024-02-26T05:05:19;98397.94;;;6.90;100.00
20145;BME280;10233;50.814;6.590;2024-02-26T05:06:19;98394.94;;;6.86;100.00
20145;BME280;10233;50.814;6.590;2024-02-26T05:07:20;98393.34;;;6.85;100.00
20145;BME280;10233;50.814;6.590;2024-02-26T05:08:21;98398.81;;;6.84;100.00
20145;BME280;10233;50.814;6.590;2024-02-26T05:09:21;98399.03;;;6.82;100.00
20145;BME280;10233;50.814;6.590;2024-02-26T05:10:22;98400.81;;;6.88;100.00
20145;BME280;10233;50.814;6.590;2024-02-26T05:11:22;98397.56;;;6.86;100.00
20145;BME280;10233;50.814;6.590;2024-02-26T05:12:23;98393.34;;;6.85;100.00
20145;BME280;10233;50.814;6.590;2024-02-26T05:13:23;98391.94;;;6.83;100.00
20145;BME280;10233;50.814;6.590;2024-02-26T05:14:25;98402.41;;;6.89;100.00
20145;BME280;10233;50.814;6.590;2024-02-26T05:15:26;98398.19;;;6.88;100.00
20145;BME280;10233;50.814;6.590;2024-02-26T05:16:26;98397.94;;;6.90;100.00
20145;BME280;10233;50.814;6.590;2024-02-26T05:17:27;98397.56;;;6.86;100.00
20145;BME280;10233;50.814;6.590;2024-02-26T05:18:28;98398.19;;;6.88;100.00
20145;BME280;10233;50.814;6.590;2024-02-26T05:19:28;98398.75;;;6.90;100.00
20145;BME280;10233;50.814;6.590;2024-02-26T05:20:29;98400.81;;;6.88;100.00
20145;BME280;10233;50.814;6.590;2024-02-26T05:21:29;98400.00;;;6.88;100.00
20145;BME280;10233;50.814;6.590;2024-02-26T05:22:30;98397.00;;;6.84;100.00
20145;BME280;10233;50.814;6.590;2024-02-26T05:23:30;98402.72;;;6.81;100.00
20145;BME280;10233;50.814;6.590;2024-02-26T05:24:31;98399.66;;;6.84;100.00
20145;BME280;10233;50.814;6.590;2024-02-26T05:25:31;98396.53;;;6.87;100.00